الصفحة الرئيسية
METAR-TAF:

METAR-TAF

مطار :

Nakhon Phanom, تايلاند

دائرة عرض: 17-23-02N, خط طول: 104-38-35E, ارتفاع: 179 متر

مراقبة الطقس الحالي

تاريخ ووقت الإصدار 10ساعات و 8 دقيقة قبل الساعة 13:00UTC
ريح 3 عقدة من الجنوب/الجنوب الغربي, الاتجاه يتراوح بين الجنوب و الجنوب الغربي
درجة الحرارة 29°درجة مئوية
الرطوبة 79%
ضغط 1007 hPa
الرؤية 10 كم أو أكثر
غيوم قليلة على ارتفاع 3500 قدم

METAR: VTUW 161300Z 20003KT 170V230 9999 FEW035 29/25 Q1007 NOSIG

زمن: 06:08 (23:08 UTC)

توقعات

تاريخ ووقت الإصدار 6ساعات و 8 دقيقة قبل الساعة 17:00UTC
التوقعات صالحة من16 الساعة 18 UTC إلى 17 الساعة 18 UTC
ريح 5 عقدة من الجنوب الغربي
الرؤية: 9000 متر
غيوم قليلة على ارتفاع 3000 قدم
مؤقت
من 17 الساعة 07 UTC إلى 17 الساعة 13 UTC
ريح 15 عقدةمن اتجاهات متغيرة
الرؤية: 4000 متر
غيوم قليلة على ارتفاع 1800 قدم, مزنة ركامية.
غيوم مفككة على ارتفاع 2000 قدم
غيوم مفككة على ارتفاع 8000 قدم
عاصفة رعدية, مطر

TAF: VTUW 161700Z 1618/1718 22005KT 9000 FEW030 TEMPO 1707/1713 VRB15KT 4000 TSRA FEW018CB BKN020 BKN080

أرصاد الطقس والتوقعات من أكثر من 4000 مطار (تقارير الطقس للمطار METAR والتنبؤ بالطقس بالمطارTAF).

المحطات المتاحة هي النقط الصفراء والحمراء على الخريطة.

حرك المؤشر فوق النقطة لمعرفة اسم المحطة.

ثم انقر لمعرفة أرصاد وتوقعات الطقس.

لتغيير الخارطة: اضغط على الأزرار الخضراء مع رمز الصليب الأسود للتكبير. على الزر الأخضر مع شرطة للتصغير، أو على الأسهم الخضراء للخرائط المجاورة.


METAR-TAF: